Forside
METAR-TAF:

METAR-TAF

Lufthavne :

Flughafen Heringsdorf

Heringsdorf, Tyskland

Breddekreds: 53-53N, længdekreds: 014-09E, højde: 28 m

Aktuelle vejr

Denne rapport blev lavet for 1 time og 5 minutter siden, kl. 13:50 UTC
Vind 7 kt fra sydøst
Temperatur 18°C
Fugtighed 34%
Tryk 1025 hPa
Sigt 10 km eller mere
ingen skyer under 1500m og ingen cumulonimbus

METAR: EDAH 081350Z 14007KT CAVOK 18/02 Q1025

Tid: 16:55 (14:55 UTC)

Vejrudsigter

Denne rapport blev lavet for 55 minutter siden, kl. 14:00 UTC
Foreløbig gælder fra 08 på 15 UTC til 08 på 24 UTC
Vind 7 kt fra sydøst
Sigt 10 km eller mere
ingen skyer under 1500m og ingen cumulonimbus
ændring
fra 08 på 18 UTC til 08 på 20 UTC
Vind 6 kt fra sydvest

TAF: EDAH 081400Z 0815/0824 14007KT CAVOK BECMG 0818/0820 22006KT

Vejrobservationer og prognoser fra mere end 4000 lufthavne (METAR og TAF).

De gule og røde prikker repræsenterer de meteorologiske stationer.

Flyt musen over at se navnet på stationen.

Så klik over at se vejr observationer og prognoser.

At skifte det kort: Klik på de grønne knapper med et sort kors for at zoome ind; på den grønne knap med en bindestreg for at zoome ud; eller på de grønne pile for tilstødende kort.


METAR-TAF: